sensor_id;sensor_type;location;lat;lon;timestamp;pressure;altitude;pressure_sealevel;temperature;humidity
11198;BME280;5655;48.744;9.162;2023-04-02T00:01:47;95300.25;;;8.84;100.00
11198;BME280;5655;48.744;9.162;2023-04-02T00:04:18;95306.41;;;9.16;100.00
11198;BME280;5655;48.744;9.162;2023-04-02T00:06:51;95314.06;;;9.28;100.00
11198;BME280;5655;48.744;9.162;2023-04-02T00:09:34;95313.66;;;9.01;100.00
11198;BME280;5655;48.744;9.162;2023-04-02T00:12:13;95318.63;;;9.17;100.00
11198;BME280;5655;48.744;9.162;2023-04-02T00:14:45;95324.78;;;9.35;100.00
11198;BME280;5655;48.744;9.162;2023-04-02T00:17:11;95316.31;;;9.12;100.00
11198;BME280;5655;48.744;9.162;2023-04-02T00:22:10;95327.03;;;9.33;100.00
11198;BME280;5655;48.744;9.162;2023-04-02T00:24:38;95322.78;;;9.04;100.00
11198;BME280;5655;48.744;9.162;2023-04-02T00:27:08;95331.25;;;9.27;100.00
11198;BME280;5655;48.744;9.162;2023-04-02T00:29:35;95330.03;;;9.10;100.00
11198;BME280;5655;48.744;9.162;2023-04-02T00:32:00;95335.00;;;9.05;100.00
11198;BME280;5655;48.744;9.162;2023-04-02T00:34:35;95339.25;;;9.41;100.00
11198;BME280;5655;48.744;9.162;2023-04-02T00:37:01;95346.88;;;9.25;100.00
11198;BME280;5655;48.744;9.162;2023-04-02T00:39:33;95331.09;;;8.85;100.00
11198;BME280;5655;48.744;9.162;2023-04-02T00:42:03;95345.69;;;9.05;100.00
11198;BME280;5655;48.744;9.162;2023-04-02T00:44:35;95342.28;;;9.33;100.00
11198;BME280;5655;48.744;9.162;2023-04-02T00:47:18;95343.78;;;9.20;100.00
11198;BME280;5655;48.744;9.162;2023-04-02T00:49:44;95340.75;;;9.25;100.00
11198;BME280;5655;48.744;9.162;2023-04-02T00:52:15;95344.59;;;9.34;100.00
11198;BME280;5655;48.744;9.162;2023-04-02T00:54:46;95332.75;;;9.18;100.00
11198;BME280;5655;48.744;9.162;2023-04-02T00:57:15;95337.72;;;9.26;100.00
11198;BME280;5655;48.744;9.162;2023-04-02T00:59:52;95341.53;;;9.32;100.00
11198;BME280;5655;48.744;9.162;2023-04-02T01:04:52;95341.16;;;9.23;100.00
11198;BME280;5655;48.744;9.162;2023-04-02T01:07:22;95348.00;;;9.24;100.00
11198;BME280;5655;48.744;9.162;2023-04-02T01:12:35;95341.88;;;9.09;100.00
11198;BME280;5655;48.744;9.162;2023-04-02T01:15:08;95348.44;;;9.40;100.00
11198;BME280;5655;48.744;9.162;2023-04-02T01:23:12;95360.66;;;9.55;100.00
11198;BME280;5655;48.744;9.162;2023-04-02T01:26:11;95356.06;;;9.60;100.00
11198;BME280;5655;48.744;9.162;2023-04-02T01:31:23;95358.31;;;9.22;100.00
11198;BME280;5655;48.744;9.162;2023-04-02T01:33:51;95369.34;;;9.24;100.00
11198;BME280;5655;48.744;9.162;2023-04-02T01:36:24;95366.00;;;9.55;100.00
11198;BME280;5655;48.744;9.162;2023-04-02T01:39:19;95367.50;;;9.49;100.00
11198;BME280;5655;48.744;9.162;2023-04-02T01:42:27;95372.88;;;9.60;100.00
11198;BME280;5655;48.744;9.162;2023-04-02T01:45:14;95378.59;;;9.73;100.00
11198;BME280;5655;48.744;9.162;2023-04-02T01:47:42;95377.44;;;9.60;100.00
11198;BME280;5655;48.744;9.162;2023-04-02T01:50:29;95370.56;;;9.58;100.00
11198;BME280;5655;48.744;9.162;2023-04-02T01:52:58;95379.00;;;9.78;100.00
11198;BME280;5655;48.744;9.162;2023-04-02T01:55:38;95380.50;;;9.76;100.00
11198;BME280;5655;48.744;9.162;2023-04-02T01:58:05;95377.44;;;9.56;100.00
11198;BME280;5655;48.744;9.162;2023-04-02T02:00:33;95375.91;;;9.51;100.00
11198;BME280;5655;48.744;9.162;2023-04-02T02:03:00;95381.28;;;9.69;100.00
11198;BME280;5655;48.744;9.162;2023-04-02T02:05:27;95386.63;;;9.80;100.00
11198;BME280;5655;48.744;9.162;2023-04-02T02:07:55;95392.75;;;9.91;100.00
11198;BME280;5655;48.744;9.162;2023-04-02T02:10:34;95383.56;;;9.67;100.00
11198;BME280;5655;48.744;9.162;2023-04-02T02:12:59;95388.94;;;9.71;100.00
11198;BME280;5655;48.744;9.162;2023-04-02T02:15:25;95387.38;;;9.59;100.00
11198;BME280;5655;48.744;9.162;2023-04-02T02:17:57;95392.72;;;9.63;100.00
11198;BME280;5655;48.744;9.162;2023-04-02T02:20:25;95387.41;;;9.73;100.00
11198;BME280;5655;48.744;9.162;2023-04-02T02:22:52;95393.88;;;9.76;100.00
11198;BME280;5655;48.744;9.162;2023-04-02T02:25:26;95394.66;;;9.83;100.00
11198;BME280;5655;48.744;9.162;2023-04-02T02:28:16;95398.84;;;10.02;100.00
11198;BME280;5655;48.744;9.162;2023-04-02T02:30:49;95402.66;;;9.66;100.00
11198;BME280;5655;48.744;9.162;2023-04-02T02:33:23;95406.84;;;9.63;100.00
11198;BME280;5655;48.744;9.162;2023-04-02T02:35:55;95410.69;;;9.87;100.00
11198;BME280;5655;48.744;9.162;2023-04-02T02:38:37;95404.97;;;9.99;100.00
11198;BME280;5655;48.744;9.162;2023-04-02T02:44:31;95415.66;;;10.10;100.00
11198;BME280;5655;48.744;9.162;2023-04-02T02:47:01;95420.25;;;10.27;100.00
11198;BME280;5655;48.744;9.162;2023-04-02T02:49:31;95424.84;;;10.05;100.00
11198;BME280;5655;48.744;9.162;2023-04-02T02:52:17;95422.56;;;10.39;100.00
11198;BME280;5655;48.744;9.162;2023-04-02T02:54:46;95430.97;;;10.23;100.00
11198;BME280;5655;48.744;9.162;2023-04-02T02:57:16;95429.41;;;9.97;100.00
11198;BME280;5655;48.744;9.162;2023-04-02T02:59:45;95423.31;;;10.04;100.00
11198;BME280;5655;48.744;9.162;2023-04-02T03:02:10;95418.72;;;9.94;100.00
11198;BME280;5655;48.744;9.162;2023-04-02T03:04:37;95424.84;;;10.19;100.00
11198;BME280;5655;48.744;9.162;2023-04-02T03:07:03;95435.53;;;10.09;100.00
11198;BME280;5655;48.744;9.162;2023-04-02T03:14:45;95445.09;;;10.34;100.00
11198;BME280;5655;48.744;9.162;2023-04-02T03:17:25;95445.50;;;10.29;100.00
11198;BME280;5655;48.744;9.162;2023-04-02T03:20:01;95446.19;;;9.98;100.00
11198;BME280;5655;48.744;9.162;2023-04-02T03:22:34;95442.00;;;9.97;100.00
11198;BME280;5655;48.744;9.162;2023-04-02T03:27:58;95450.78;;;10.01;100.00
11198;BME280;5655;48.744;9.162;2023-04-02T03:30:35;95451.56;;;10.12;100.00
11198;BME280;5655;48.744;9.162;2023-04-02T03:33:20;95456.56;;;10.17;100.00
11198;BME280;5655;48.744;9.162;2023-04-02T03:38:26;95457.59;;;9.67;100.00
11198;BME280;5655;48.744;9.162;2023-04-02T03:41:03;95459.16;;;9.89;100.00
11198;BME280;5655;48.744;9.162;2023-04-02T03:43:38;95464.53;;;10.03;100.00
11198;BME280;5655;48.744;9.162;2023-04-02T03:46:25;95465.31;;;10.00;100.00
11198;BME280;5655;48.744;9.162;2023-04-02T03:48:56;95464.50;;;9.82;100.00
11198;BME280;5655;48.744;9.162;2023-04-02T03:53:54;95473.31;;;9.93;100.00
11198;BME280;5655;48.744;9.162;2023-04-02T03:56:35;95476.38;;;10.06;100.00
11198;BME280;5655;48.744;9.162;2023-04-02T04:02:02;95482.84;;;9.97;100.00
11198;BME280;5655;48.744;9.162;2023-04-02T04:04:33;95485.19;;;10.13;100.00
11198;BME280;5655;48.744;9.162;2023-04-02T04:07:05;95498.59;;;10.27;100.00
11198;BME280;5655;48.744;9.162;2023-04-02T04:09:36;95492.41;;;9.98;100.00
11198;BME280;5655;48.744;9.162;2023-04-02T04:12:31;95489.00;;;10.05;100.00
11198;BME280;5655;48.744;9.162;2023-04-02T04:18:11;95494.38;;;10.19;100.00
11198;BME280;5655;48.744;9.162;2023-04-02T04:20:49;95499.34;;;10.24;100.00
11198;BME280;5655;48.744;9.162;2023-04-02T04:23:23;95500.50;;;10.16;100.00
11198;BME280;5655;48.744;9.162;2023-04-02T04:31:42;95506.50;;;9.85;100.00
11198;BME280;5655;48.744;9.162;2023-04-02T04:34:16;95502.31;;;9.84;100.00
11198;BME280;5655;48.744;9.162;2023-04-02T04:36:46;95516.47;;;9.98;100.00
11198;BME280;5655;48.744;9.162;2023-04-02T04:39:22;95514.94;;;9.94;100.00
11198;BME280;5655;48.744;9.162;2023-04-02T04:41:56;95506.13;;;9.79;100.00
11198;BME280;5655;48.744;9.162;2023-04-02T04:44:37;95511.13;;;10.02;100.00
11198;BME280;5655;48.744;9.162;2023-04-02T04:47:16;95534.00;;;9.89;100.00
11198;BME280;5655;48.744;9.162;2023-04-02T04:49:56;95522.59;;;9.99;100.00
11198;BME280;5655;48.744;9.162;2023-04-02T04:52:28;95529.47;;;10.07;100.00
11198;BME280;5655;48.744;9.162;2023-04-02T04:54:54;95534.03;;;9.99;100.00
11198;BME280;5655;48.744;9.162;2023-04-02T05:00:21;95537.84;;;9.95;100.00
11198;BME280;5655;48.744;9.162;2023-04-02T05:02:46;95526.75;;;9.93;100.00
11198;BME280;5655;48.744;9.162;2023-04-02T05:05:30;95537.91;;;10.09;100.00
11198;BME280;5655;48.744;9.162;2023-04-02T05:08:04;95537.50;;;10.07;100.00
11198;BME280;5655;48.744;9.162;2023-04-02T05:18:40;95546.88;;;9.58;100.00
11198;BME280;5655;48.744;9.162;2023-04-02T05:21:23;95549.69;;;10.01;100.00
11198;BME280;5655;48.744;9.162;2023-04-02T05:24:04;95550.88;;;10.11;100.00
11198;BME280;5655;48.744;9.162;2023-04-02T05:26:35;95558.13;;;10.07;100.00
11198;BME280;5655;48.744;9.162;2023-04-02T05:29:06;95565.72;;;10.01;100.00
11198;BME280;5655;48.744;9.162;2023-04-02T05:31:39;95559.25;;;10.02;100.00
11198;BME280;5655;48.744;9.162;2023-04-02T05:34:10;95553.81;;;9.74;100.00
11198;BME280;5655;48.744;9.162;2023-04-02T05:36:36;95557.13;;;9.49;100.00
11198;BME280;5655;48.744;9.162;2023-04-02T05:39:07;95549.97;;;9.71;100.00
11198;BME280;5655;48.744;9.162;2023-04-02T05:41:37;95561.44;;;9.75;100.00
11198;BME280;5655;48.744;9.162;2023-04-02T05:44:11;95567.59;;;9.83;100.00
11198;BME280;5655;48.744;9.162;2023-04-02T05:46:48;95566.44;;;9.84;100.00
11198;BME280;5655;48.744;9.162;2023-04-02T05:51:55;95570.28;;;9.83;100.00
11198;BME280;5655;48.744;9.162;2023-04-02T05:54:45;95568.31;;;9.66;100.00
11198;BME280;5655;48.744;9.162;2023-04-02T05:57:20;95581.03;;;10.04;100.00
11198;BME280;5655;48.744;9.162;2023-04-02T05:59:51;95585.97;;;9.91;100.00
11198;BME280;5655;48.744;9.162;2023-04-02T06:02:30;95574.47;;;9.84;100.00
11198;BME280;5655;48.744;9.162;2023-04-02T06:07:39;95584.44;;;9.94;100.00
11198;BME280;5655;48.744;9.162;2023-04-02T06:10:13;95599.66;;;9.83;100.00
11198;BME280;5655;48.744;9.162;2023-04-02T06:12:44;95602.00;;;9.98;100.00
11198;BME280;5655;48.744;9.162;2023-04-02T06:15:18;95600.84;;;9.92;100.00
11198;BME280;5655;48.744;9.162;2023-04-02T06:18:47;95618.91;;;10.17;100.00
11198;BME280;5655;48.744;9.162;2023-04-02T06:20:54;95617.28;;;9.98;100.00
11198;BME280;5655;48.744;9.162;2023-04-02T06:23:39;95625.03;;;10.17;100.00
11198;BME280;5655;48.744;9.162;2023-04-02T06:26:20;95616.53;;;10.01;100.00
11198;BME280;5655;48.744;9.162;2023-04-02T06:28:47;95624.94;;;9.96;100.00
11198;BME280;5655;48.744;9.162;2023-04-02T06:31:43;95625.72;;;10.14;100.00
11198;BME280;5655;48.744;9.162;2023-04-02T06:34:15;95630.38;;;10.21;100.00
11198;BME280;5655;48.744;9.162;2023-04-02T06:36:41;95626.44;;;9.93;100.00
11198;BME280;5655;48.744;9.162;2023-04-02T06:39:11;95628.09;;;10.23;100.00
11198;BME280;5655;48.744;9.162;2023-04-02T06:41:39;95630.22;;;9.85;100.00
11198;BME280;5655;48.744;9.162;2023-04-02T06:44:15;95638.41;;;10.31;100.00
11198;BME280;5655;48.744;9.162;2023-04-02T06:46:47;95644.56;;;10.35;100.00
11198;BME280;5655;48.744;9.162;2023-04-02T06:49:24;95658.00;;;10.57;100.00
11198;BME280;5655;48.744;9.162;2023-04-02T06:51:53;95659.50;;;10.51;100.00
11198;BME280;5655;48.744;9.162;2023-04-02T06:54:20;95657.13;;;10.17;100.00
11198;BME280;5655;48.744;9.162;2023-04-02T06:56:47;95660.97;;;10.30;100.00
11198;BME280;5655;48.744;9.162;2023-04-02T06:59:14;95680.91;;;10.51;100.00
11198;BME280;5655;48.744;9.162;2023-04-02T07:01:46;95686.34;;;10.82;100.00
11198;BME280;5655;48.744;9.162;2023-04-02T07:04:13;95693.56;;;10.61;100.00
11198;BME280;5655;48.744;9.162;2023-04-02T07:06:39;95685.41;;;10.29;100.00
11198;BME280;5655;48.744;9.162;2023-04-02T07:09:06;95683.84;;;10.17;100.00
11198;BME280;5655;48.744;9.162;2023-04-02T07:11:32;95691.53;;;10.33;100.00
11198;BME280;5655;48.744;9.162;2023-04-02T07:13:57;95700.41;;;10.51;100.00
11198;BME280;5655;48.744;9.162;2023-04-02T07:16:24;95704.63;;;10.59;100.00
11198;BME280;5655;48.744;9.162;2023-04-02T07:18:51;95715.31;;;10.56;100.00
11198;BME280;5655;48.744;9.162;2023-04-02T07:21:17;95716.03;;;10.38;100.00
11198;BME280;5655;48.744;9.162;2023-04-02T07:23:42;95710.75;;;10.60;100.00
11198;BME280;5655;48.744;9.162;2023-04-02T07:26:12;95720.78;;;10.91;100.00
11198;BME280;5655;48.744;9.162;2023-04-02T07:28:38;95724.56;;;10.76;100.00
11198;BME280;5655;48.744;9.162;2023-04-02T07:31:15;95733.03;;;10.99;100.00
11198;BME280;5655;48.744;9.162;2023-04-02T07:33:41;95734.16;;;10.98;100.00
11198;BME280;5655;48.744;9.162;2023-04-02T07:36:12;95733.06;;;11.20;100.00
11198;BME280;5655;48.744;9.162;2023-04-02T07:38:38;95746.81;;;11.15;100.00
11198;BME280;5655;48.744;9.162;2023-04-02T07:41:04;95749.91;;;11.21;100.00
11198;BME280;5655;48.744;9.162;2023-04-02T07:43:30;95738.41;;;11.20;100.00
11198;BME280;5655;48.744;9.162;2023-04-02T07:45:56;95745.66;;;11.02;100.00
11198;BME280;5655;48.744;9.162;2023-04-02T07:48:21;95751.41;;;11.18;100.00
11198;BME280;5655;48.744;9.162;2023-04-02T07:50:47;95750.59;;;10.89;100.00
11198;BME280;5655;48.744;9.162;2023-04-02T07:53:33;95753.25;;;10.86;100.00
11198;BME280;5655;48.744;9.162;2023-04-02T07:56:01;95758.25;;;10.91;100.00
11198;BME280;5655;48.744;9.162;2023-04-02T07:58:28;95764.38;;;10.99;100.00
11198;BME280;5655;48.744;9.162;2023-04-02T08:00:53;95767.09;;;11.13;100.00
11198;BME280;5655;48.744;9.162;2023-04-02T08:03:19;95782.00;;;11.10;100.00
11198;BME280;5655;48.744;9.162;2023-04-02T08:05:55;95789.69;;;11.40;100.00
11198;BME280;5655;48.744;9.162;2023-04-02T08:08:22;95785.13;;;11.55;100.00
11198;BME280;5655;48.744;9.162;2023-04-02T08:10:49;95788.97;;;11.50;100.00
11198;BME280;5655;48.744;9.162;2023-04-02T08:13:15;95785.84;;;11.23;100.00
11198;BME280;5655;48.744;9.162;2023-04-02T08:15:41;95791.22;;;11.13;100.00
11198;BME280;5655;48.744;9.162;2023-04-02T08:18:07;95797.34;;;11.27;100.00
11198;BME280;5655;48.744;9.162;2023-04-02T08:20:33;95798.09;;;11.28;100.00
11198;BME280;5655;48.744;9.162;2023-04-02T08:22:58;95803.88;;;11.33;100.00
11198;BME280;5655;48.744;9.162;2023-04-02T08:25:25;95808.09;;;11.56;100.00
11198;BME280;5655;48.744;9.162;2023-04-02T08:27:51;95811.13;;;11.36;100.00
11198;BME280;5655;48.744;9.162;2023-04-02T08:30:18;95818.03;;;11.45;100.00
11198;BME280;5655;48.744;9.162;2023-04-02T08:32:43;95820.34;;;11.43;100.00
11198;BME280;5655;48.744;9.162;2023-04-02T08:35:11;95825.69;;;11.39;100.00
11198;BME280;5655;48.744;9.162;2023-04-02T08:37:37;95821.75;;;10.94;100.00
11198;BME280;5655;48.744;9.162;2023-04-02T08:40:03;95819.50;;;11.10;100.00
11198;BME280;5655;48.744;9.162;2023-04-02T08:42:38;95834.13;;;11.41;100.00
11198;BME280;5655;48.744;9.162;2023-04-02T08:45:16;95836.41;;;11.57;100.00
11198;BME280;5655;48.744;9.162;2023-04-02T08:47:43;95831.03;;;11.21;100.00
11198;BME280;5655;48.744;9.162;2023-04-02T08:50:13;95838.69;;;11.33;100.00
11198;BME280;5655;48.744;9.162;2023-04-02T08:52:41;95841.81;;;11.64;100.00
11198;BME280;5655;48.744;9.162;2023-04-02T08:55:19;95843.72;;;11.60;100.00
11198;BME280;5655;48.744;9.162;2023-04-02T08:57:54;95841.69;;;11.14;100.00
11198;BME280;5655;48.744;9.162;2023-04-02T09:00:35;95859.47;;;11.93;100.00
11198;BME280;5655;48.744;9.162;2023-04-02T09:03:07;95852.56;;;11.78;100.00
11198;BME280;5655;48.744;9.162;2023-04-02T09:05:36;95859.84;;;11.88;100.00
11198;BME280;5655;48.744;9.162;2023-04-02T09:08:03;95857.13;;;11.70;100.00
11198;BME280;5655;48.744;9.162;2023-04-02T09:10:39;95860.19;;;11.69;100.00
11198;BME280;5655;48.744;9.162;2023-04-02T09:13:15;95858.31;;;11.76;100.00
11198;BME280;5655;48.744;9.162;2023-04-02T09:15:42;95867.91;;;11.81;100.00
11198;BME280;5655;48.744;9.162;2023-04-02T09:18:14;95863.25;;;11.64;100.00
11198;BME280;5655;48.744;9.162;2023-04-02T09:20:41;95859.47;;;11.79;100.00
11198;BME280;5655;48.744;9.162;2023-04-02T09:23:26;95870.53;;;11.70;100.00
11198;BME280;5655;48.744;9.162;2023-04-02T09:25:52;95875.84;;;11.38;100.00
11198;BME280;5655;48.744;9.162;2023-04-02T09:28:18;95878.13;;;11.44;100.00
11198;BME280;5655;48.744;9.162;2023-04-02T09:33:47;95883.88;;;11.38;100.00
11198;BME280;5655;48.744;9.162;2023-04-02T09:41:33;95895.38;;;11.57;100.00
11198;BME280;5655;48.744;9.162;2023-04-02T09:49:15;95915.75;;;11.72;100.00
11198;BME280;5655;48.744;9.162;2023-04-02T09:51:42;95917.28;;;11.73;100.00
11198;BME280;5655;48.744;9.162;2023-04-02T09:54:14;95918.09;;;11.98;100.00
11198;BME280;5655;48.744;9.162;2023-04-02T09:56:58;95916.81;;;11.57;100.00
11198;BME280;5655;48.744;9.162;2023-04-02T09:59:24;95921.88;;;11.72;100.00
11198;BME280;5655;48.744;9.162;2023-04-02T10:04:40;95928.44;;;12.03;100.00
11198;BME280;5655;48.744;9.162;2023-04-02T10:10:23;95941.44;;;11.87;100.00
11198;BME280;5655;48.744;9.162;2023-04-02T10:15:37;95937.47;;;11.46;100.00
11198;BME280;5655;48.744;9.162;2023-04-02T10:18:13;95939.53;;;11.91;100.00
11198;BME280;5655;48.744;9.162;2023-04-02T10:20:40;95940.69;;;12.04;100.00
11198;BME280;5655;48.744;9.162;2023-04-02T10:23:14;95947.22;;;12.21;100.00
11198;BME280;5655;48.744;9.162;2023-04-02T10:28:49;95951.44;;;12.18;100.00
11198;BME280;5655;48.744;9.162;2023-04-02T10:31:25;95949.88;;;11.89;100.00
11198;BME280;5655;48.744;9.162;2023-04-02T10:34:10;95954.50;;;12.03;100.00
11198;BME280;5655;48.744;9.162;2023-04-02T10:36:52;95954.50;;;11.99;100.00
11198;BME280;5655;48.744;9.162;2023-04-02T10:42:16;95963.28;;;11.89;100.00
11198;BME280;5655;48.744;9.162;2023-04-02T10:44:56;95957.44;;;11.69;100.00
11198;BME280;5655;48.744;9.162;2023-04-02T10:48:27;95963.69;;;11.95;100.00
11198;BME280;5655;48.744;9.162;2023-04-02T10:50:47;95970.56;;;11.89;100.00
11198;BME280;5655;48.744;9.162;2023-04-02T10:53:19;95967.50;;;11.90;100.00
11198;BME280;5655;48.744;9.162;2023-04-02T10:55:51;95972.06;;;11.79;100.00
11198;BME280;5655;48.744;9.162;2023-04-02T10:58:26;95977.84;;;11.88;100.00
11198;BME280;5655;48.744;9.162;2023-04-02T11:01:08;95981.31;;;11.99;100.00
11198;BME280;5655;48.744;9.162;2023-04-02T11:03:54;95986.66;;;11.96;100.00
11198;BME280;5655;48.744;9.162;2023-04-02T11:06:29;95987.78;;;11.91;100.00
11198;BME280;5655;48.744;9.162;2023-04-02T11:09:01;95991.09;;;11.56;100.00
11198;BME280;5655;48.744;9.162;2023-04-02T11:11:37;95995.88;;;12.05;100.00
11198;BME280;5655;48.744;9.162;2023-04-02T11:14:23;95995.06;;;11.80;100.00
11198;BME280;5655;48.744;9.162;2023-04-02T11:16:50;96004.69;;;12.06;100.00
11198;BME280;5655;48.744;9.162;2023-04-02T11:22:24;96003.16;;;12.08;100.00
11198;BME280;5655;48.744;9.162;2023-04-02T11:29:39;96017.34;;;12.12;100.00
11198;BME280;5655;48.744;9.162;2023-04-02T11:37:08;96022.69;;;11.98;100.00
11198;BME280;5655;48.744;9.162;2023-04-02T11:39:54;96028.53;;;12.57;100.00
11198;BME280;5655;48.744;9.162;2023-04-02T11:42:22;96023.47;;;12.09;100.00
11198;BME280;5655;48.744;9.162;2023-04-02T11:44:49;96028.91;;;12.38;100.00
11198;BME280;5655;48.744;9.162;2023-04-02T11:52:24;96036.56;;;12.43;100.00
11198;BME280;5655;48.744;9.162;2023-04-02T11:55:00;96037.72;;;12.38;100.00
11198;BME280;5655;48.744;9.162;2023-04-02T12:08:37;96037.34;;;12.61;100.00
11198;BME280;5655;48.744;9.162;2023-04-02T12:11:11;96049.59;;;12.34;100.00
11198;BME280;5655;48.744;9.162;2023-04-02T12:16:09;96055.00;;;12.62;100.00
11198;BME280;5655;48.744;9.162;2023-04-02T12:18:41;96059.22;;;12.95;100.00
11198;BME280;5655;48.744;9.162;2023-04-02T12:21:14;96060.75;;;12.92;100.00
11198;BME280;5655;48.744;9.162;2023-04-02T12:23:44;96063.44;;;12.85;100.00
11198;BME280;5655;48.744;9.162;2023-04-02T12:29:12;96058.06;;;13.28;100.00
11198;BME280;5655;48.744;9.162;2023-04-02T12:31:42;96062.25;;;13.43;100.00
11198;BME280;5655;48.744;9.162;2023-04-02T12:34:13;96059.16;;;13.44;100.00
11198;BME280;5655;48.744;9.162;2023-04-02T12:39:18;96065.31;;;13.48;100.00
11198;BME280;5655;48.744;9.162;2023-04-02T12:41:43;96062.50;;;13.84;100.00
11198;BME280;5655;48.744;9.162;2023-04-02T12:44:22;96064.19;;;13.35;100.00
11198;BME280;5655;48.744;9.162;2023-04-02T12:46:48;96072.56;;;13.62;100.00
11198;BME280;5655;48.744;9.162;2023-04-02T12:49:32;96068.72;;;13.63;100.00
11198;BME280;5655;48.744;9.162;2023-04-02T12:52:01;96077.94;;;13.62;100.00
11198;BME280;5655;48.744;9.162;2023-04-02T12:54:28;96078.78;;;13.16;100.00
11198;BME280;5655;48.744;9.162;2023-04-02T12:59:54;96081.75;;;13.68;100.00
11198;BME280;5655;48.744;9.162;2023-04-02T13:02:24;96082.59;;;13.54;100.00
11198;BME280;5655;48.744;9.162;2023-04-02T13:04:52;96087.19;;;13.47;100.00
11198;BME280;5655;48.744;9.162;2023-04-02T13:07:20;96083.41;;;13.27;100.00
11198;BME280;5655;48.744;9.162;2023-04-02T13:10:24;96086.47;;;13.36;100.00
11198;BME280;5655;48.744;9.162;2023-04-02T13:12:59;96087.63;;;13.28;100.00
11198;BME280;5655;48.744;9.162;2023-04-02T13:15:33;96080.25;;;13.67;100.00
11198;BME280;5655;48.744;9.162;2023-04-02T13:22:52;96097.97;;;13.40;100.00
11198;BME280;5655;48.744;9.162;2023-04-02T13:25:17;96089.91;;;13.01;100.00
11198;BME280;5655;48.744;9.162;2023-04-02T13:27:42;96092.22;;;13.27;100.00
11198;BME280;5655;48.744;9.162;2023-04-02T13:30:21;96096.44;;;13.46;100.00
11198;BME280;5655;48.744;9.162;2023-04-02T13:32:47;96097.97;;;13.01;100.00
11198;BME280;5655;48.744;9.162;2023-04-02T13:35:12;96100.25;;;13.38;100.00
11198;BME280;5655;48.744;9.162;2023-04-02T13:37:38;96103.34;;;12.83;100.00
11198;BME280;5655;48.744;9.162;2023-04-02T13:40:03;96099.53;;;13.20;100.00
11198;BME280;5655;48.744;9.162;2023-04-02T13:42:29;96099.13;;;12.96;100.00
11198;BME280;5655;48.744;9.162;2023-04-02T13:44:55;96104.88;;;12.70;100.00
11198;BME280;5655;48.744;9.162;2023-04-02T13:47:20;96108.72;;;13.01;100.00
11198;BME280;5655;48.744;9.162;2023-04-02T13:49:46;96107.91;;;12.58;100.00
11198;BME280;5655;48.744;9.162;2023-04-02T13:52:14;96085.59;;;12.18;100.00
11198;BME280;5655;48.744;9.162;2023-04-02T13:54:55;96085.16;;;12.02;100.00
11198;BME280;5655;48.744;9.162;2023-04-02T13:57:23;96081.63;;;11.84;100.00
11198;BME280;5655;48.744;9.162;2023-04-02T13:59:49;96083.97;;;11.89;100.00
11198;BME280;5655;48.744;9.162;2023-04-02T14:02:20;96090.81;;;11.83;100.00
11198;BME280;5655;48.744;9.162;2023-04-02T14:04:49;96097.72;;;11.84;100.00
11198;BME280;5655;48.744;9.162;2023-04-02T14:12:57;96117.63;;;11.79;100.00
11198;BME280;5655;48.744;9.162;2023-04-02T14:15:40;96115.16;;;11.50;100.00
11198;BME280;5655;48.744;9.162;2023-04-02T14:18:22;96119.50;;;11.72;100.00
11198;BME280;5655;48.744;9.162;2023-04-02T14:27:18;96119.03;;;11.63;100.00
11198;BME280;5655;48.744;9.162;2023-04-02T14:29:46;96119.34;;;11.47;100.00
11198;BME280;5655;48.744;9.162;2023-04-02T14:34:58;96107.97;;;11.06;100.00
11198;BME280;5655;48.744;9.162;2023-04-02T14:40:30;96122.97;;;11.18;100.00
11198;BME280;5655;48.744;9.162;2023-04-02T14:43:10;96118.00;;;11.16;100.00
11198;BME280;5655;48.744;9.162;2023-04-02T14:50:47;96115.59;;;11.04;100.00
11198;BME280;5655;48.744;9.162;2023-04-02T14:53:24;96117.50;;;11.00;100.00
11198;BME280;5655;48.744;9.162;2023-04-02T14:55:51;96125.25;;;10.72;100.00
11198;BME280;5655;48.744;9.162;2023-04-02T14:58:22;96137.84;;;11.12;100.00
11198;BME280;5655;48.744;9.162;2023-04-02T15:01:17;96128.72;;;11.16;100.00
11198;BME280;5655;48.744;9.162;2023-04-02T15:03:46;96131.59;;;10.97;100.00
11198;BME280;5655;48.744;9.162;2023-04-02T15:06:22;96143.44;;;10.96;100.00
11198;BME280;5655;48.744;9.162;2023-04-02T15:09:04;96136.16;;;10.93;100.00
11198;BME280;5655;48.744;9.162;2023-04-02T15:11:35;96132.78;;;10.59;100.00
11198;BME280;5655;48.744;9.162;2023-04-02T15:16:42;96141.75;;;10.74;100.00
11198;BME280;5655;48.744;9.162;2023-04-02T15:19:13;96157.59;;;10.97;100.00
11198;BME280;5655;48.744;9.162;2023-04-02T15:22:06;96153.25;;;10.78;100.00
11198;BME280;5655;48.744;9.162;2023-04-02T15:27:59;96172.91;;;10.96;100.00
11198;BME280;5655;48.744;9.162;2023-04-02T15:30:26;96163.00;;;10.60;100.00
11198;BME280;5655;48.744;9.162;2023-04-02T15:32:57;96162.88;;;10.86;100.00
11198;BME280;5655;48.744;9.162;2023-04-02T15:35:50;96165.31;;;10.61;100.00
11198;BME280;5655;48.744;9.162;2023-04-02T15:38:23;96172.41;;;11.27;100.00
11198;BME280;5655;48.744;9.162;2023-04-02T15:43:40;96189.59;;;10.45;100.00
11198;BME280;5655;48.744;9.162;2023-04-02T15:46:20;96196.25;;;10.59;100.00
11198;BME280;5655;48.744;9.162;2023-04-02T15:52:11;96200.31;;;10.45;100.00
11198;BME280;5655;48.744;9.162;2023-04-02T15:55:07;96214.19;;;10.55;100.00
11198;BME280;5655;48.744;9.162;2023-04-02T16:05:57;96213.50;;;10.01;100.00
11198;BME280;5655;48.744;9.162;2023-04-02T16:08:27;96217.06;;;9.56;100.00
11198;BME280;5655;48.744;9.162;2023-04-02T16:10:56;96219.84;;;9.90;100.00
11198;BME280;5655;48.744;9.162;2023-04-02T16:13:31;96229.88;;;9.96;100.00
11198;BME280;5655;48.744;9.162;2023-04-02T16:21:11;96248.28;;;10.31;100.00
11198;BME280;5655;48.744;9.162;2023-04-02T16:23:41;96242.59;;;9.80;100.00
11198;BME280;5655;48.744;9.162;2023-04-02T16:31:49;96246.22;;;9.65;100.00
11198;BME280;5655;48.744;9.162;2023-04-02T16:34:37;96257.25;;;9.90;100.00
11198;BME280;5655;48.744;9.162;2023-04-02T16:37:10;96258.31;;;9.59;100.00
11198;BME280;5655;48.744;9.162;2023-04-02T16:39:50;96264.66;;;9.74;100.00